Time;durP1;ratioP1;P1;durP2;ratioP2;P2;SDS_P1;SDS_P2;PMS_P1;PMS_P2;Temp;Humidity;BMP_temperature;BMP_pressure;BME280_temperature;BME280_humidity;BME280_pressure;Samples;Min_cycle;Max_cycle;Signal;HPM_P1;HPM_P2
2022/11/22 00:00:49;;;;;;;12.43;7.43;;;12.50;50.90;;;;;;5067679;28;20454;-79
2022/11/22 00:03:17;;;;;;;12.07;7.87;;;12.50;50.90;;;;;;5059147;28;20473;-79
2022/11/22 00:05:47;;;;;;;15.23;7.30;;;12.50;51.00;;;;;;5065129;28;20470;-79
2022/11/22 00:08:15;;;;;;;11.70;8.40;;;12.50;51.00;;;;;;5064780;28;20464;-79
2022/11/22 00:10:43;;;;;;;11.60;8.20;;;12.50;51.10;;;;;;5064949;28;20450;-79
2022/11/22 00:13:10;;;;;;;18.73;8.30;;;12.50;51.20;;;;;;5066080;28;20471;-80
2022/11/22 00:15:38;;;;;;;13.50;8.27;;;12.50;51.10;;;;;;5062992;28;20470;-79
2022/11/22 00:18:06;;;;;;;12.30;8.60;;;12.50;51.20;;;;;;5067189;28;20449;-80
2022/11/22 00:20:35;;;;;;;12.53;8.73;;;12.50;51.30;;;;;;5065935;28;20457;-80
2022/11/22 00:23:04;;;;;;;15.40;9.20;;;12.50;51.30;;;;;;5055975;28;20465;-80
2022/11/22 00:25:33;;;;;;;15.27;9.27;;;12.50;51.40;;;;;;5062411;28;20474;-80
2022/11/22 00:28:01;;;;;;;14.20;8.73;;;12.60;51.50;;;;;;5066709;28;20534;-79
2022/11/22 00:30:29;;;;;;;10.60;7.60;;;12.60;51.40;;;;;;5067135;28;20528;-78
2022/11/22 00:32:57;;;;;;;12.50;7.50;;;12.60;52.10;;;;;;5061855;28;20450;-80
2022/11/22 00:35:24;;;;;;;13.47;8.13;;;12.60;51.60;;;;;;5069380;28;20465;-79
2022/11/22 00:37:52;;;;;;;12.77;8.73;;;12.60;51.60;;;;;;5061727;28;20457;-80
2022/11/22 00:40:22;;;;;;;12.00;8.07;;;12.60;51.50;;;;;;5058729;28;20490;-79
2022/11/22 00:42:50;;;;;;;11.73;8.00;;;12.50;51.50;;;;;;5063727;28;20474;-79
2022/11/22 00:45:18;;;;;;;11.00;7.73;;;12.60;51.60;;;;;;5067781;28;20473;-80
2022/11/22 00:47:46;;;;;;;13.00;8.33;;;12.60;51.60;;;;;;5061293;28;20458;-80
2022/11/22 00:50:14;;;;;;;13.47;8.17;;;12.60;51.60;;;;;;5059598;28;20484;-79
2022/11/22 00:52:43;;;;;;;11.20;7.73;;;12.60;51.60;;;;;;5054256;28;20460;-79
2022/11/22 00:55:11;;;;;;;9.63;7.20;;;12.60;51.70;;;;;;5063357;28;20475;-79
2022/11/22 00:57:41;;;;;;;10.43;7.20;;;12.60;51.60;;;;;;5055899;28;20450;-79
2022/11/22 01:00:10;;;;;;;11.27;7.47;;;12.60;51.70;;;;;;5065336;28;20466;-79
2022/11/22 01:02:38;;;;;;;10.10;7.70;;;12.60;51.70;;;;;;5060972;28;20461;-79
2022/11/22 01:05:06;;;;;;;10.70;7.13;;;12.60;51.70;;;;;;5062164;28;20442;-80
2022/11/22 01:07:34;;;;;;;10.53;7.00;;;12.60;51.80;;;;;;5058813;28;20460;-79
2022/11/22 01:10:02;;;;;;;11.63;7.77;;;12.60;51.80;;;;;;5055797;28;20454;-80
2022/11/22 01:12:29;;;;;;;8.57;6.80;;;12.60;51.80;;;;;;5068582;28;20452;-79
2022/11/22 01:14:59;;;;;;;11.33;7.87;;;12.60;51.80;;;;;;5061194;28;20472;-80
2022/11/22 01:17:27;;;;;;;13.23;7.20;;;12.60;51.70;;;;;;5060351;28;20445;-79
2022/11/22 01:19:56;;;;;;;10.87;7.70;;;12.60;51.80;;;;;;5056158;28;20457;-79
2022/11/22 01:22:24;;;;;;;9.80;7.40;;;12.60;51.80;;;;;;5058864;28;20451;-80
2022/11/22 01:24:51;;;;;;;10.60;7.50;;;12.60;51.90;;;;;;5054483;28;20478;-80
2022/11/22 01:27:19;;;;;;;8.30;6.50;;;12.60;51.80;;;;;;5056352;28;20460;-79
2022/11/22 01:29:47;;;;;;;8.70;6.70;;;12.60;51.90;;;;;;5067292;28;20454;-79
2022/11/22 01:32:17;;;;;;;9.70;7.10;;;12.60;52.00;;;;;;5066147;28;20454;-80
2022/11/22 01:34:45;;;;;;;9.57;6.97;;;12.60;52.00;;;;;;5054358;28;20442;-80
2022/11/22 01:37:14;;;;;;;9.93;7.00;;;12.60;51.90;;;;;;5068141;28;20478;-80
2022/11/22 01:39:42;;;;;;;9.10;6.10;;;12.60;52.10;;;;;;5066340;28;20457;-80
2022/11/22 01:42:10;;;;;;;10.10;6.70;;;12.60;52.00;;;;;;5066648;28;20473;-80
2022/11/22 01:44:39;;;;;;;9.53;6.70;;;12.60;52.00;;;;;;5066244;28;20477;-79
2022/11/22 01:47:10;;;;;;;7.40;6.13;;;12.60;52.10;;;;;;5060085;28;20474;-79
2022/11/22 01:49:41;;;;;;;9.37;6.53;;;12.60;52.10;;;;;;5066252;28;20462;-80
2022/11/22 01:52:12;;;;;;;10.17;6.90;;;12.60;52.20;;;;;;5065510;28;20461;-80
2022/11/22 01:54:40;;;;;;;7.73;6.17;;;12.60;52.20;;;;;;5063435;28;20449;-80
2022/11/22 01:57:10;;;;;;;7.97;6.40;;;12.50;52.10;;;;;;5062274;28;20471;-80
2022/11/22 01:59:39;;;;;;;8.43;6.70;;;12.50;52.20;;;;;;5055325;28;20454;-80
2022/11/22 02:02:07;;;;;;;8.50;6.30;;;12.50;52.10;;;;;;5057540;28;20454;-80
2022/11/22 02:04:35;;;;;;;9.20;6.67;;;12.50;52.20;;;;;;5064033;28;20475;-79
2022/11/22 02:07:07;;;;;;;7.20;5.70;;;12.50;52.30;;;;;;5063024;28;20473;-80
2022/11/22 02:09:35;;;;;;;8.23;6.50;;;12.50;52.30;;;;;;5067123;28;20536;-80
2022/11/22 02:12:05;;;;;;;8.37;6.40;;;12.60;52.30;;;;;;5058516;28;20453;-80
2022/11/22 02:14:33;;;;;;;7.90;5.90;;;12.50;52.20;;;;;;5055687;28;20446;-80
2022/11/22 02:17:01;;;;;;;8.73;6.50;;;12.50;52.30;;;;;;5063862;28;20478;-80
2022/11/22 02:19:34;;;;;;;8.70;6.33;;;12.50;52.30;;;;;;5062970;28;20462;-80
2022/11/22 02:22:04;;;;;;;8.97;6.77;;;12.50;52.30;;;;;;5064601;28;20536;-80
2022/11/22 02:24:36;;;;;;;9.33;7.00;;;12.50;52.50;;;;;;5058435;28;20465;-80
2022/11/22 02:27:05;;;;;;;7.67;5.80;;;12.50;52.40;;;;;;5060286;28;20474;-80
2022/11/22 02:29:33;;;;;;;9.43;6.23;;;12.50;52.50;;;;;;5057614;28;20458;-80
2022/11/22 02:32:01;;;;;;;7.73;6.37;;;12.50;52.50;;;;;;5064823;28;20450;-80
2022/11/22 02:34:29;;;;;;;8.40;6.37;;;12.50;52.60;;;;;;5064711;28;20445;-80
2022/11/22 02:36:58;;;;;;;8.87;6.43;;;12.50;52.60;;;;;;5068040;28;20489;-80
2022/11/22 02:39:28;;;;;;;7.17;6.23;;;12.50;52.60;;;;;;5068496;28;20460;-79
2022/11/22 02:41:56;;;;;;;7.57;6.00;;;12.50;52.60;;;;;;5064470;28;20509;-80
2022/11/22 02:44:26;;;;;;;9.40;6.57;;;12.50;52.60;;;;;;5071183;28;20469;-81
2022/11/22 02:46:54;;;;;;;8.37;6.37;;;12.50;52.70;;;;;;5072545;28;20469;-80
2022/11/22 02:49:23;;;;;;;7.10;5.80;;;12.50;52.60;;;;;;5067683;28;20458;-81
2022/11/22 02:51:52;;;;;;;7.87;5.83;;;12.50;52.70;;;;;;5062485;28;20486;-80
2022/11/22 02:54:19;;;;;;;7.37;5.90;;;12.50;52.70;;;;;;5065588;28;20467;-81
2022/11/22 02:56:47;;;;;;;8.73;6.10;;;12.50;52.60;;;;;;5067891;28;20483;-81
2022/11/22 02:59:15;;;;;;;7.87;6.17;;;12.50;52.60;;;;;;5060507;28;20453;-81
2022/11/22 03:01:44;;;;;;;10.60;6.87;;;12.50;52.60;;;;;;5070350;28;20453;-82
2022/11/22 03:04:23;;;;;;;8.27;6.40;;;12.50;52.70;;;;;;5065220;28;20479;-83
2022/11/22 03:06:55;;;;;;;7.90;5.93;;;12.50;52.60;;;;;;5080467;28;20471;-82
2022/11/22 03:09:23;;;;;;;9.20;6.13;;;12.50;52.90;;;;;;5076263;28;20450;-81
2022/11/22 03:11:51;;;;;;;10.63;6.80;;;12.50;52.90;;;;;;5076360;28;20445;-81
2022/11/22 03:14:19;;;;;;;6.53;5.30;;;12.50;52.90;;;;;;5079917;28;20446;-82
2022/11/22 03:16:49;;;;;;;7.00;5.73;;;12.50;52.90;;;;;;5075968;28;20476;-82
2022/11/22 03:19:17;;;;;;;7.27;5.60;;;12.50;53.00;;;;;;5078377;28;20524;-83
2022/11/22 03:21:45;;;;;;;9.03;5.73;;;12.50;53.00;;;;;;5094716;28;20444;-83
2022/11/22 03:24:13;;;;;;;7.17;5.77;;;12.50;53.00;;;;;;5083528;28;20476;-83
2022/11/22 03:26:41;;;;;;;7.40;5.63;;;12.50;53.10;;;;;;5074543;28;20466;-82
2022/11/22 03:29:09;;;;;;;7.53;5.40;;;12.50;53.00;;;;;;5076731;28;20449;-81
2022/11/22 03:31:39;;;;;;;5.83;5.13;;;12.50;53.40;;;;;;5117176;28;20429;-82
2022/11/22 03:34:08;;;;;;;7.80;5.87;;;12.50;53.20;;;;;;5119643;28;20425;-82
2022/11/22 03:36:36;;;;;;;7.37;5.90;;;12.50;53.00;;;;;;5119235;28;20516;-83
2022/11/22 03:39:04;;;;;;;8.00;5.90;;;12.50;53.00;;;;;;5119537;28;20444;-82
2022/11/22 03:41:32;;;;;;;8.00;6.07;;;12.40;53.10;;;;;;5102897;28;20438;-82
2022/11/22 03:43:59;;;;;;;8.20;5.93;;;12.50;53.20;;;;;;5100400;28;20443;-82
2022/11/22 03:46:27;;;;;;;7.77;5.90;;;12.40;53.10;;;;;;5089921;28;20453;-82
2022/11/22 03:48:55;;;;;;;10.07;5.87;;;12.40;53.20;;;;;;5088509;28;20438;-82
2022/11/22 03:51:24;;;;;;;7.90;6.20;;;12.50;53.10;;;;;;5089757;28;20450;-82
2022/11/22 03:53:52;;;;;;;9.23;5.87;;;12.50;53.00;;;;;;5097242;28;20528;-82
2022/11/22 03:56:20;;;;;;;7.60;5.60;;;12.40;53.10;;;;;;5090875;28;20479;-82
2022/11/22 03:58:47;;;;;;;8.17;6.33;;;12.40;53.10;;;;;;5087190;28;20438;-82
2022/11/22 04:01:15;;;;;;;7.70;5.97;;;12.50;53.30;;;;;;5087963;28;20450;-82
2022/11/22 04:03:43;;;;;;;8.10;6.10;;;12.50;53.20;;;;;;5082809;28;20435;-80
2022/11/22 04:06:12;;;;;;;6.80;5.53;;;12.50;53.20;;;;;;5058500;28;20485;-81
2022/11/22 04:08:41;;;;;;;8.90;5.83;;;12.50;53.10;;;;;;5065714;28;20460;-81
2022/11/22 04:11:11;;;;;;;6.50;5.50;;;12.40;53.20;;;;;;5057463;28;20482;-82
2022/11/22 04:16:24;;;;;;;11.27;6.60;;;12.50;53.20;;;;;;5064030;28;20481;-82
2022/11/22 04:18:52;;;;;;;7.10;5.47;;;12.50;53.30;;;;;;5067366;28;20458;-81
2022/11/22 04:21:35;;;;;;;8.17;5.97;;;12.50;53.10;;;;;;5066513;28;20458;-82
2022/11/22 04:26:51;;;;;;;9.10;6.00;;;12.40;53.10;;;;;;5066768;28;20465;-82
2022/11/22 04:29:19;;;;;;;10.03;6.50;;;12.40;53.20;;;;;;5068904;28;20454;-82
2022/11/22 04:34:33;;;;;;;9.53;6.37;;;12.40;53.30;;;;;;5063444;28;20461;-82
2022/11/22 04:37:02;;;;;;;8.37;5.77;;;12.50;53.30;;;;;;5071423;28;20488;-82
2022/11/22 04:39:31;;;;;;;10.50;6.73;;;12.50;53.40;;;;;;5061575;28;20548;-82
2022/11/22 04:44:45;;;;;;;7.77;5.90;;;12.50;53.30;;;;;;5065749;28;20454;-80
2022/11/22 04:47:57;;;;;;;11.07;6.40;;;12.50;53.30;;;;;;5070933;28;20532;-81
2022/11/22 04:52:52;;;;;;;7.93;6.27;;;12.50;53.30;;;;;;5069709;28;20454;-81
2022/11/22 04:52:56;;;;;;;10.63;6.83;;;12.40;53.30;;;;;;5065983;28;20478;-81
2022/11/22 04:55:26;;;;;;;7.90;5.80;;;12.50;53.40;;;;;;5058202;28;20538;-82
2022/11/22 04:57:54;;;;;;;10.13;6.53;;;12.50;53.20;;;;;;5064525;28;20453;-81
2022/11/22 05:00:27;;;;;;;8.47;6.30;;;12.40;53.20;;;;;;5065543;28;20453;-81
2022/11/22 05:02:55;;;;;;;12.77;7.23;;;12.50;53.20;;;;;;5064092;28;20460;-82
2022/11/22 05:05:23;;;;;;;11.70;7.47;;;12.50;53.30;;;;;;5059115;28;20477;-80
2022/11/22 05:07:51;;;;;;;11.33;6.50;;;12.40;53.30;;;;;;5066073;28;20454;-81
2022/11/22 05:10:19;;;;;;;10.97;7.13;;;12.40;53.30;;;;;;5064098;28;20517;-81
2022/11/22 05:12:54;;;;;;;9.73;6.40;;;12.50;53.20;;;;;;5062069;28;20507;-81
2022/11/22 05:15:22;;;;;;;10.70;6.97;;;12.50;53.40;;;;;;5065020;28;20477;-81
2022/11/22 05:17:51;;;;;;;7.90;5.97;;;12.50;53.30;;;;;;5070217;28;20481;-81
2022/11/22 05:20:19;;;;;;;10.17;6.60;;;12.40;53.20;;;;;;5070602;28;20454;-81
2022/11/22 05:25:32;;;;;;;11.57;7.10;;;12.50;53.30;;;;;;5059618;28;20481;-82
2022/11/22 05:28:02;;;;;;;10.60;6.60;;;12.40;53.30;;;;;;5065927;28;20459;-80
2022/11/22 05:30:30;;;;;;;12.20;7.20;;;12.40;53.30;;;;;;5071044;28;20446;-82
2022/11/22 05:32:58;;;;;;;13.43;7.43;;;12.40;53.30;;;;;;5072387;28;20453;-82
2022/11/22 05:35:26;;;;;;;10.67;7.30;;;12.40;53.40;;;;;;5065325;28;20466;-82
2022/11/22 05:37:55;;;;;;;9.30;6.50;;;12.40;53.30;;;;;;5063274;28;20454;-82
2022/11/22 05:40:23;;;;;;;10.83;7.17;;;12.50;53.40;;;;;;5072732;28;20953;-83
2022/11/22 05:42:51;;;;;;;8.93;6.70;;;12.40;53.20;;;;;;5063192;28;20472;-81
2022/11/22 05:45:21;;;;;;;10.20;6.90;;;12.40;53.20;;;;;;5066246;28;20481;-82
2022/11/22 05:47:49;;;;;;;11.67;6.87;;;12.50;53.40;;;;;;5066607;28;20461;-81
2022/11/22 05:50:16;;;;;;;11.00;7.13;;;12.40;53.30;;;;;;5068328;28;20456;-81
2022/11/22 05:52:44;;;;;;;12.07;7.00;;;12.50;53.50;;;;;;5054015;28;20450;-81
2022/11/22 05:55:13;;;;;;;10.43;6.60;;;12.50;53.40;;;;;;5063544;28;20454;-82
2022/11/22 05:57:40;;;;;;;10.70;7.03;;;12.50;53.30;;;;;;5068061;28;20461;-82
2022/11/22 06:00:09;;;;;;;9.77;6.53;;;12.50;53.30;;;;;;5061644;28;20457;-81
2022/11/22 06:02:39;;;;;;;9.33;6.60;;;12.50;53.40;;;;;;5061818;28;20450;-82
2022/11/22 06:05:08;;;;;;;10.87;7.30;;;12.50;53.40;;;;;;5063112;28;20460;-81
2022/11/22 06:07:36;;;;;;;10.40;7.10;;;12.50;53.40;;;;;;5061131;28;20537;-81
2022/11/22 06:10:05;;;;;;;9.87;6.90;;;12.50;53.40;;;;;;5061564;28;20458;-82
2022/11/22 06:12:34;;;;;;;11.40;7.47;;;12.50;53.50;;;;;;5072214;28;20460;-82
2022/11/22 06:15:02;;;;;;;11.57;7.27;;;12.50;53.40;;;;;;5061655;28;20454;-82
2022/11/22 06:17:30;;;;;;;12.37;7.80;;;12.50;53.50;;;;;;5063119;28;20460;-82
2022/11/22 06:20:00;;;;;;;10.60;6.53;;;12.50;53.40;;;;;;5067776;28;20465;-81
2022/11/22 06:22:33;;;;;;;10.60;6.90;;;12.50;53.60;;;;;;5060014;28;20449;-82
2022/11/22 06:25:01;;;;;;;9.73;7.07;;;12.50;53.40;;;;;;5065842;28;20541;-82
2022/11/22 06:27:30;;;;;;;10.43;7.10;;;12.50;53.60;;;;;;5071723;28;20470;-82
2022/11/22 06:29:58;;;;;;;9.07;6.70;;;12.50;53.60;;;;;;5065569;28;20447;-81
2022/11/22 06:32:26;;;;;;;8.93;6.53;;;12.50;53.50;;;;;;5072969;28;20460;-82
2022/11/22 06:34:54;;;;;;;14.23;7.90;;;12.50;53.40;;;;;;5059175;28;20462;-83
2022/11/22 06:37:24;;;;;;;9.83;6.60;;;12.50;53.30;;;;;;5060903;28;20473;-82
2022/11/22 06:39:53;;;;;;;9.60;6.20;;;12.50;53.60;;;;;;5072099;28;20450;-82
2022/11/22 06:42:21;;;;;;;8.83;6.60;;;12.50;53.50;;;;;;5074623;28;20468;-83
2022/11/22 06:44:49;;;;;;;8.10;6.00;;;12.50;53.50;;;;;;5068483;28;20450;-83
2022/11/22 06:47:17;;;;;;;11.13;6.90;;;12.50;54.20;;;;;;5068077;28;20475;-83
2022/11/22 06:49:46;;;;;;;9.80;6.63;;;12.50;53.60;;;;;;5073211;28;20537;-83
2022/11/22 06:52:14;;;;;;;8.63;6.70;;;12.50;53.60;;;;;;5070941;28;20454;-83
2022/11/22 06:54:44;;;;;;;10.97;7.30;;;12.50;53.60;;;;;;5065484;28;20454;-83
2022/11/22 06:57:13;;;;;;;7.80;6.37;;;12.60;53.60;;;;;;5071909;28;20491;-82
2022/11/22 06:59:41;;;;;;;10.83;6.50;;;12.60;53.70;;;;;;5065559;28;20465;-82
2022/11/22 07:02:11;;;;;;;9.90;6.80;;;12.60;53.70;;;;;;5069202;28;20458;-82
2022/11/22 07:04:39;;;;;;;12.13;7.20;;;12.60;53.50;;;;;;5062564;28;20456;-83
2022/11/22 07:07:27;;;;;;;9.23;6.80;;;12.60;53.60;;;;;;5060780;28;20476;-82
2022/11/22 07:09:56;;;;;;;10.00;6.50;;;12.60;53.70;;;;;;5064939;28;20477;-83
2022/11/22 07:12:24;;;;;;;9.67;6.30;;;12.60;53.60;;;;;;5060078;28;20497;-83
2022/11/22 07:14:53;;;;;;;11.20;7.27;;;12.60;53.60;;;;;;5074435;28;20449;-82
2022/11/22 07:17:21;;;;;;;11.03;6.67;;;12.60;53.70;;;;;;5063559;28;20457;-83
2022/11/22 07:19:49;;;;;;;10.10;6.63;;;12.60;53.70;;;;;;5070246;28;20454;-83
2022/11/22 07:22:17;;;;;;;7.40;5.93;;;12.60;53.70;;;;;;5074086;28;20459;-83
2022/11/22 07:24:45;;;;;;;10.73;7.13;;;12.60;53.90;;;;;;5061395;28;20454;-83
2022/11/22 07:27:15;;;;;;;9.47;6.70;;;12.60;53.80;;;;;;5073817;28;20528;-82
2022/11/22 07:29:44;;;;;;;9.77;6.90;;;12.60;53.90;;;;;;5071291;28;20510;-83
2022/11/22 07:32:12;;;;;;;11.23;6.50;;;12.60;53.80;;;;;;5065474;28;20454;-83
2022/11/22 07:34:40;;;;;;;8.50;6.30;;;12.60;53.70;;;;;;5065891;28;20546;-83
2022/11/22 07:37:09;;;;;;;9.33;7.03;;;12.60;53.80;;;;;;5066557;28;20467;-83
2022/11/22 07:39:37;;;;;;;9.73;6.80;;;12.70;54.00;;;;;;5068923;28;20536;-82
2022/11/22 07:42:06;;;;;;;8.90;6.13;;;12.70;53.90;;;;;;5063815;28;20494;-83
2022/11/22 07:44:35;;;;;;;9.77;6.60;;;12.70;53.90;;;;;;5059066;28;20458;-83
2022/11/22 07:47:04;;;;;;;9.67;6.00;;;12.70;53.80;;;;;;5067537;28;20480;-82
2022/11/22 07:49:32;;;;;;;9.60;6.40;;;12.70;53.80;;;;;;5061701;28;20451;-82
2022/11/22 07:52:00;;;;;;;7.93;6.30;;;12.70;54.40;;;;;;5066142;28;20457;-82
2022/11/22 07:54:28;;;;;;;9.03;6.50;;;12.70;53.80;;;;;;5070236;28;20460;-82
2022/11/22 07:56:56;;;;;;;10.40;6.43;;;12.80;53.90;;;;;;5059863;28;20473;-82
2022/11/22 07:59:25;;;;;;;8.60;5.93;;;12.70;53.80;;;;;;5060918;28;20463;-83
2022/11/22 08:01:54;;;;;;;8.40;6.30;;;12.80;53.90;;;;;;5070862;28;20456;-82
2022/11/22 08:04:22;;;;;;;8.10;6.30;;;12.80;53.80;;;;;;5060280;28;20469;-83
2022/11/22 08:06:51;;;;;;;7.33;5.77;;;12.80;53.90;;;;;;5067222;28;20474;-83
2022/11/22 08:09:19;;;;;;;11.03;6.47;;;12.80;54.00;;;;;;5072199;28;20482;-82
2022/11/22 08:11:48;;;;;;;10.90;6.97;;;12.80;53.90;;;;;;5077259;28;20469;-83
2022/11/22 08:14:16;;;;;;;8.80;6.17;;;12.80;54.00;;;;;;5068633;28;20519;-83
2022/11/22 08:16:44;;;;;;;9.40;6.63;;;12.80;54.00;;;;;;5067513;28;20496;-82
2022/11/22 08:19:16;;;;;;;9.40;6.40;;;12.90;54.00;;;;;;5069105;28;20447;-83
2022/11/22 08:21:45;;;;;;;9.63;6.33;;;12.90;53.90;;;;;;5070298;28;20454;-82
2022/11/22 08:24:13;;;;;;;10.73;6.80;;;12.90;53.90;;;;;;5061211;28;20480;-83
2022/11/22 08:26:41;;;;;;;8.77;6.30;;;12.90;54.00;;;;;;5067086;28;20474;-83
2022/11/22 08:29:10;;;;;;;6.87;5.47;;;12.90;54.00;;;;;;5059097;28;20450;-82
2022/11/22 08:31:41;;;;;;;8.97;6.67;;;12.90;54.00;;;;;;5067054;28;20477;-84
2022/11/22 08:34:09;;;;;;;8.20;5.50;;;12.90;54.00;;;;;;5067283;28;20486;-84
2022/11/22 08:36:39;;;;;;;7.60;6.13;;;12.90;53.90;;;;;;5074977;28;20477;-82
2022/11/22 08:39:07;;;;;;;7.77;6.20;;;12.90;54.10;;;;;;5067692;28;20514;-85
2022/11/22 08:41:36;;;;;;;7.17;6.10;;;12.90;54.00;;;;;;5064956;28;20449;-83
2022/11/22 08:44:04;;;;;;;9.10;6.60;;;13.00;54.10;;;;;;5074929;28;20449;-83
2022/11/22 08:46:32;;;;;;;8.13;6.40;;;13.00;54.20;;;;;;5087840;28;20460;-83
2022/11/22 08:49:02;;;;;;;7.70;6.13;;;13.00;54.10;;;;;;5099842;28;20473;-83
2022/11/22 08:51:30;;;;;;;9.80;7.20;;;13.00;54.10;;;;;;5099279;28;20445;-81
2022/11/22 08:54:00;;;;;;;9.50;6.90;;;13.00;54.20;;;;;;5099872;28;20456;-82
2022/11/22 08:56:28;;;;;;;8.83;6.77;;;13.00;54.20;;;;;;5097894;28;20449;-83
2022/11/22 08:58:56;;;;;;;8.80;6.70;;;13.10;54.20;;;;;;5078951;28;20441;-83
2022/11/22 09:01:24;;;;;;;10.20;6.83;;;13.00;54.20;;;;;;5071404;28;20537;-83
2022/11/22 09:03:52;;;;;;;10.33;7.77;;;13.10;54.20;;;;;;5061196;28;20541;-82
2022/11/22 09:06:20;;;;;;;10.57;7.03;;;13.10;54.00;;;;;;5059388;28;20568;-84
2022/11/22 09:09:10;;;;;;;12.27;7.73;;;13.10;54.10;;;;;;5065969;28;20470;-83
2022/11/22 09:11:57;;;;;;;10.90;7.20;;;13.10;54.00;;;;;;5061760;28;20446;-83
2022/11/22 09:14:25;;;;;;;11.40;8.10;;;13.00;54.00;;;;;;5063927;28;20534;-82
2022/11/22 09:16:53;;;;;;;11.90;8.23;;;13.10;53.90;;;;;;5058371;28;20473;-82
2022/11/22 09:19:21;;;;;;;10.10;7.17;;;13.10;53.90;;;;;;5062272;28;20493;-82
2022/11/22 09:21:49;;;;;;;13.13;8.33;;;13.10;53.90;;;;;;5071598;28;20962;-82
2022/11/22 09:24:18;;;;;;;14.73;9.20;;;13.10;53.80;;;;;;5075415;28;20429;-83
2022/11/22 09:26:46;;;;;;;12.80;8.50;;;13.10;53.80;;;;;;5056389;28;20462;-83
2022/11/22 09:29:15;;;;;;;12.03;8.00;;;13.10;53.70;;;;;;5074503;28;20476;-84
2022/11/22 09:31:43;;;;;;;13.33;8.03;;;13.20;53.90;;;;;;5074136;28;20454;-83
2022/11/22 09:34:11;;;;;;;15.03;8.13;;;13.20;54.00;;;;;;5076567;28;20521;-84
2022/11/22 09:36:39;;;;;;;12.53;8.33;;;13.20;54.10;;;;;;5074273;28;20472;-83
2022/11/22 09:39:08;;;;;;;11.70;7.93;;;13.20;54.10;;;;;;5074832;28;20448;-83
2022/11/22 09:42:04;;;;;;;12.40;8.50;;;13.30;54.20;;;;;;5074455;28;20524;-83
2022/11/22 09:44:44;;;;;;;12.23;7.50;;;13.30;54.10;;;;;;5074466;28;20438;-83
2022/11/22 09:47:17;;;;;;;10.90;7.90;;;13.30;54.30;;;;;;5074750;28;20472;-83
2022/11/22 09:49:51;;;;;;;15.23;7.70;;;13.40;54.40;;;;;;5069239;28;20458;-84
2022/11/22 09:52:22;;;;;;;12.50;7.50;;;13.40;54.40;;;;;;5072563;28;20464;-83
2022/11/22 09:54:51;;;;;;;10.50;7.13;;;13.40;55.00;;;;;;5067346;28;20457;-82
2022/11/22 09:57:22;;;;;;;12.30;7.23;;;13.50;54.50;;;;;;5074670;28;20462;-83
2022/11/22 10:00:02;;;;;;;13.13;7.27;;;13.50;54.50;;;;;;5074848;28;20445;-83
2022/11/22 10:02:31;;;;;;;9.20;6.73;;;13.60;54.50;;;;;;5075107;28;20425;-83
2022/11/22 10:05:24;;;;;;;9.77;7.20;;;13.60;54.70;;;;;;5074705;28;20454;-83
2022/11/22 10:07:55;;;;;;;11.93;7.50;;;13.70;54.60;;;;;;5074836;28;20523;-83
2022/11/22 10:10:26;;;;;;;10.43;7.27;;;13.80;54.80;;;;;;5070236;28;20450;-83
2022/11/22 10:12:57;;;;;;;11.80;6.97;;;13.90;54.90;;;;;;5074890;28;20444;-84
2022/11/22 10:15:28;;;;;;;9.60;7.13;;;14.00;55.30;;;;;;5075913;28;20462;-84
2022/11/22 10:17:56;;;;;;;9.90;6.57;;;14.20;54.80;;;;;;5069211;28;20451;-83
2022/11/22 10:20:26;;;;;;;9.37;6.80;;;14.40;54.80;;;;;;5068806;28;20441;-84
2022/11/22 10:22:54;;;;;;;11.37;6.77;;;14.60;54.70;;;;;;5076624;28;20912;-84
2022/11/22 10:25:22;;;;;;;12.17;6.97;;;14.80;54.60;;;;;;5075992;28;20469;-83
2022/11/22 10:28:10;;;;;;;13.00;8.00;;;14.90;54.50;;;;;;5076224;28;20477;-83
2022/11/22 10:30:40;;;;;;;11.30;7.70;;;15.10;54.20;;;;;;5076472;28;20441;-83
2022/11/22 10:33:11;;;;;;;11.20;7.77;;;15.30;54.10;;;;;;5075003;28;20453;-83
2022/11/22 10:35:51;;;;;;;8.43;6.43;;;15.40;54.00;;;;;;5070595;28;20483;-83
2022/11/22 10:38:45;;;;;;;13.90;8.07;;;15.50;53.90;;;;;;5076499;28;20528;-83
2022/11/22 10:41:27;;;;;;;11.13;7.43;;;15.50;53.70;;;;;;5074947;28;20442;-83
2022/11/22 10:44:02;;;;;;;10.50;7.70;;;15.50;53.70;;;;;;5076887;28;20449;-83
2022/11/22 10:46:35;;;;;;;12.33;7.67;;;15.60;53.90;;;;;;5077800;28;20507;-83
2022/11/22 10:49:05;;;;;;;10.90;7.20;;;15.70;53.80;;;;;;5071191;28;20474;-83
2022/11/22 10:51:38;;;;;;;9.90;7.30;;;15.70;53.90;;;;;;5077459;28;20445;-83
2022/11/22 10:54:14;;;;;;;10.80;7.60;;;15.80;53.90;;;;;;5075544;28;20449;-83
2022/11/22 10:56:48;;;;;;;9.77;6.83;;;16.00;53.90;;;;;;5078867;28;20460;-83
2022/11/22 10:59:32;;;;;;;9.50;6.43;;;16.20;54.00;;;;;;5079928;28;20429;-84
2022/11/22 11:02:03;;;;;;;10.27;7.27;;;16.40;54.00;;;;;;5084174;28;20445;-83
2022/11/22 11:04:32;;;;;;;10.60;7.40;;;16.70;54.20;;;;;;5082198;28;20448;-84
2022/11/22 11:07:00;;;;;;;13.83;7.27;;;17.00;54.10;;;;;;5084386;28;20456;-84
2022/11/22 11:09:44;;;;;;;11.03;7.07;;;17.40;53.90;;;;;;5064365;28;20504;-83
2022/11/22 11:12:36;;;;;;;10.37;7.37;;;17.80;53.70;;;;;;5062060;28;20461;-84
2022/11/22 11:15:14;;;;;;;10.30;6.77;;;18.20;53.30;;;;;;5062572;28;20442;-83
2022/11/22 11:17:42;;;;;;;7.60;6.10;;;18.50;53.00;;;;;;5062661;28;20461;-83
2022/11/22 11:20:16;;;;;;;8.43;6.23;;;18.80;52.60;;;;;;5065443;28;20443;-84
2022/11/22 11:22:44;;;;;;;7.60;6.10;;;19.00;52.20;;;;;;5064483;28;20462;-84
2022/11/22 11:25:33;;;;;;;13.73;6.80;;;19.20;52.40;;;;;;5073425;28;20547;-84
2022/11/22 11:28:03;;;;;;;7.73;6.10;;;19.60;52.40;;;;;;5082505;28;20440;-82
2022/11/22 11:30:39;;;;;;;8.87;6.13;;;19.80;51.50;;;;;;5086330;28;20864;-84
2022/11/22 11:33:17;;;;;;;8.93;6.90;;;19.80;51.70;;;;;;5086430;28;20440;-83
2022/11/22 11:35:45;;;;;;;8.83;6.80;;;20.00;51.40;;;;;;5087172;28;20460;-84
2022/11/22 11:38:30;;;;;;;8.13;6.30;;;20.20;51.70;;;;;;5085214;28;20471;-84
2022/11/22 11:40:58;;;;;;;9.33;6.80;;;20.30;51.20;;;;;;5086056;28;20445;-84
2022/11/22 11:43:27;;;;;;;8.27;6.67;;;20.60;51.70;;;;;;5083669;28;20457;-84
2022/11/22 11:46:03;;;;;;;8.53;6.20;;;20.80;51.20;;;;;;5079856;28;20477;-84
2022/11/22 11:48:36;;;;;;;13.53;6.63;;;21.00;51.10;;;;;;5086040;28;20476;-84
2022/11/22 11:51:08;;;;;;;9.70;6.60;;;21.30;51.10;;;;;;5093049;28;20483;-84
2022/11/22 11:53:36;;;;;;;7.60;6.50;;;21.50;50.80;;;;;;5072268;28;20446;-84
2022/11/22 11:56:28;;;;;;;6.30;5.27;;;21.80;50.60;;;;;;5064568;28;20461;-84
2022/11/22 11:58:57;;;;;;;7.67;5.60;;;22.00;50.20;;;;;;5075639;28;20775;-82
2022/11/22 12:01:26;;;;;;;6.67;5.13;;;22.20;50.40;;;;;;5075549;28;20428;-83
2022/11/22 12:03:55;;;;;;;13.53;6.27;;;22.40;50.20;;;;;;5076096;28;20526;-84
2022/11/22 12:06:28;;;;;;;9.23;6.10;;;22.60;50.00;;;;;;5076859;28;20529;-80
2022/11/22 12:08:56;;;;;;;9.20;6.20;;;22.80;49.80;;;;;;5075519;28;20470;-83
2022/11/22 12:11:30;;;;;;;7.53;5.73;;;22.90;49.80;;;;;;5074362;28;20460;-83
2022/11/22 12:14:00;;;;;;;6.60;5.50;;;23.10;49.70;;;;;;5074737;28;20405;-84
2022/11/22 12:16:49;;;;;;;6.03;5.30;;;23.30;49.60;;;;;;5075625;28;20460;-83
2022/11/22 12:19:20;;;;;;;6.90;5.80;;;23.40;49.10;;;;;;5075153;28;20445;-84
2022/11/22 12:21:57;;;;;;;9.10;6.03;;;23.60;49.10;;;;;;5076701;28;20540;-83
2022/11/22 12:24:27;;;;;;;7.90;6.10;;;23.80;48.90;;;;;;5076415;28;20449;-84
2022/11/22 12:27:15;;;;;;;7.40;5.80;;;23.90;48.80;;;;;;5075578;28;20446;-83
2022/11/22 12:29:43;;;;;;;8.23;6.03;;;24.00;49.20;;;;;;5074818;28;20470;-84
2022/11/22 12:32:15;;;;;;;6.40;5.30;;;24.20;48.50;;;;;;5075382;28;20532;-84
2022/11/22 12:34:48;;;;;;;7.23;5.60;;;24.30;48.30;;;;;;5075405;28;20452;-83
2022/11/22 12:37:17;;;;;;;7.13;5.27;;;24.40;48.30;;;;;;5075604;28;20444;-83
2022/11/22 12:39:47;;;;;;;6.30;5.20;;;24.30;48.00;;;;;;5075371;28;20426;-84
2022/11/22 12:42:18;;;;;;;6.53;5.30;;;24.30;47.90;;;;;;5076099;28;20487;-83
2022/11/22 12:44:53;;;;;;;7.70;5.23;;;24.10;48.00;;;;;;5072719;28;20436;-83
2022/11/22 12:47:25;;;;;;;6.43;5.10;;;23.90;48.50;;;;;;5077780;28;20416;-83
2022/11/22 12:49:54;;;;;;;5.30;4.80;;;23.60;48.50;;;;;;5076005;28;20858;-83
2022/11/22 12:52:24;;;;;;;6.00;5.10;;;23.30;48.80;;;;;;5075599;28;20453;-83
2022/11/22 12:54:58;;;;;;;8.47;5.50;;;23.00;49.20;;;;;;5074531;28;20441;-82
2022/11/22 12:57:32;;;;;;;8.77;5.70;;;22.70;49.50;;;;;;5083790;28;20490;-82
2022/11/22 13:00:04;;;;;;;11.10;5.13;;;22.40;49.80;;;;;;5075225;28;20445;-84
2022/11/22 13:02:36;;;;;;;6.30;5.60;;;22.20;50.20;;;;;;5067887;28;20468;-84
2022/11/22 13:05:05;;;;;;;5.20;4.70;;;22.00;50.70;;;;;;5078273;28;20473;-84
2022/11/22 13:07:43;;;;;;;7.03;5.10;;;21.90;50.70;;;;;;5075435;28;20452;-84
2022/11/22 13:10:17;;;;;;;7.03;5.43;;;21.80;50.90;;;;;;5076456;28;20465;-84
2022/11/22 13:12:46;;;;;;;5.77;5.17;;;21.60;51.00;;;;;;5078126;28;20422;-84